Terminal Aerodrome Forecast
Issued by NWS Topeka, KS

Home | Current Version | Previous Version | Graphics & Text | Print | Product List | Glossary On
Versions: 1 2 3 4 5 6 7 8 9 10 11 12 13 14 15 16 17 18 19 20 21
000
FTUS43 KTOP 070324 AAB
TAFTOP
TAF AMD
KTOP 070324Z 0703/0724 01007KT 2SM SHRA BR OVC012
     FM070500 01010KT 5SM BR OVC015
     FM070900 02010KT P6SM SCT020 BKN035
     FM071400 02009KT P6SM SCT100=

USA.gov is the U.S. government's official web portal to all federal, state and local government web resources and services.